createdAt,value
2018-08-25T00:02:08.275Z,0.87
2018-08-25T00:04:36.164Z,1.27
2018-08-25T00:07:04.184Z,1.00
2018-08-25T00:09:32.076Z,2.33
2018-08-25T00:11:59.952Z,1.17
2018-08-25T00:14:27.853Z,0.97
2018-08-25T00:16:55.723Z,0.90
2018-08-25T00:19:23.631Z,1.10
2018-08-25T00:21:51.528Z,1.00
2018-08-25T00:24:19.440Z,1.00
2018-08-25T00:26:47.436Z,0.80
2018-08-25T00:29:15.700Z,0.80
2018-08-25T00:31:43.575Z,1.00
2018-08-25T00:34:11.528Z,1.47
2018-08-25T00:36:39.403Z,1.27
2018-08-25T00:39:07.888Z,0.87
2018-08-25T00:41:36.179Z,1.00
2018-08-25T00:44:04.055Z,0.97
2018-08-25T00:46:32.567Z,0.80
2018-08-25T00:49:00.492Z,1.00
2018-08-25T00:51:29.170Z,1.77
2018-08-25T00:53:57.053Z,1.27
2018-08-25T00:56:25.988Z,1.00
2018-08-25T00:58:53.876Z,0.93
2018-08-25T01:01:21.755Z,1.13
2018-08-25T01:03:50.724Z,0.90
2018-08-25T01:06:18.604Z,1.17
2018-08-25T01:08:46.523Z,0.83
2018-08-25T01:11:14.427Z,1.17
2018-08-25T01:13:42.328Z,1.10
2018-08-25T01:16:10.260Z,1.20
2018-08-25T01:18:38.153Z,1.00
2018-08-25T01:21:06.043Z,1.20
2018-08-25T01:23:33.952Z,1.30
2018-08-25T01:26:01.836Z,1.17
2018-08-25T01:28:29.716Z,1.00
2018-08-25T01:30:57.956Z,1.50
2018-08-25T01:33:25.836Z,1.73
2018-08-25T01:35:54.816Z,1.50
2018-08-25T01:38:22.723Z,1.30
2018-08-25T01:40:51.683Z,1.23
2018-08-25T01:43:19.620Z,1.43
2018-08-25T01:45:47.509Z,1.73
2018-08-25T01:48:15.403Z,1.30
2018-08-25T01:50:43.394Z,1.17
2018-08-25T01:53:11.516Z,1.00
2018-08-25T01:55:39.603Z,1.63
2018-08-25T01:58:08.161Z,1.27
2018-08-25T02:00:36.626Z,1.20
2018-08-25T02:03:04.498Z,1.27
2018-08-25T02:05:32.403Z,0.90
2018-08-25T02:08:03.280Z,0.97
2018-08-25T02:10:31.352Z,1.23
2018-08-25T02:12:59.519Z,1.43
2018-08-25T02:15:28.476Z,0.77
2018-08-25T02:17:56.372Z,1.27
2018-08-25T02:20:25.545Z,1.10
2018-08-25T02:22:53.495Z,1.13
2018-08-25T02:25:21.392Z,1.30
2018-08-25T02:27:49.360Z,1.00
2018-08-25T02:30:17.261Z,1.07
2018-08-25T02:32:45.154Z,1.10
2018-08-25T02:35:13.084Z,1.20
2018-08-25T02:37:41.028Z,0.80
2018-08-25T02:40:09.000Z,1.27
2018-08-25T02:42:36.983Z,1.20
2018-08-25T02:45:04.960Z,1.30
2018-08-25T02:47:33.539Z,1.10
2018-08-25T02:50:01.508Z,1.00
2018-08-25T02:52:29.671Z,0.80
2018-08-25T02:54:57.520Z,1.30
2018-08-25T02:57:25.428Z,1.13
2018-08-25T02:59:54.404Z,1.20
2018-08-25T03:02:22.532Z,1.40
2018-08-25T03:04:50.504Z,1.10
2018-08-25T03:07:18.457Z,1.30
2018-08-25T03:09:46.292Z,0.87
2018-08-25T03:12:14.167Z,1.23
2018-08-25T03:14:42.097Z,1.10
2018-08-25T03:17:10.004Z,1.37
2018-08-25T03:19:38.031Z,1.10
2018-08-25T03:22:05.990Z,1.13
2018-08-25T03:24:34.203Z,1.60
2018-08-25T03:27:02.144Z,1.23
2018-08-25T03:29:30.019Z,1.67
2018-08-25T03:32:00.064Z,1.40
2018-08-25T03:34:27.943Z,1.47
2018-08-25T03:36:55.849Z,1.17
2018-08-25T03:39:23.792Z,1.37
2018-08-25T03:41:51.659Z,1.50
2018-08-25T03:44:20.607Z,1.50
2018-08-25T03:46:48.637Z,1.30
2018-08-25T03:49:16.524Z,1.33
2018-08-25T03:51:44.437Z,1.20
2018-08-25T03:54:12.354Z,1.40
2018-08-25T03:56:40.227Z,1.40
2018-08-25T03:59:08.131Z,1.37
2018-08-25T04:01:36.123Z,4.80
2018-08-25T04:04:03.895Z,1.47
2018-08-25T04:06:32.088Z,1.53
2018-08-25T04:09:00.100Z,1.50
2018-08-25T04:11:27.983Z,1.57
2018-08-25T04:13:55.908Z,2.00
2018-08-25T04:16:23.798Z,1.70
2018-08-25T04:18:52.772Z,1.23
2018-08-25T04:21:20.660Z,1.60
2018-08-25T04:23:48.544Z,1.90
2018-08-25T04:26:16.452Z,1.60
2018-08-25T04:28:44.415Z,1.83
2018-08-25T04:31:12.312Z,1.77
2018-08-25T04:33:40.232Z,1.60
2018-08-25T04:36:08.108Z,1.33
2018-08-25T04:38:35.999Z,1.67
2018-08-25T04:41:03.935Z,1.67
2018-08-25T04:43:32.133Z,2.23
2018-08-25T04:46:01.024Z,1.80
2018-08-25T04:48:29.022Z,1.60
2018-08-25T04:50:56.932Z,1.67
2018-08-25T04:53:24.809Z,1.70
2018-08-25T04:55:52.702Z,1.80
2018-08-25T04:58:20.674Z,1.67
2018-08-25T05:00:48.664Z,1.63
2018-08-25T05:03:16.552Z,1.60
2018-08-25T05:05:44.435Z,1.50
2018-08-25T05:08:12.332Z,1.50
2018-08-25T05:10:40.414Z,1.83
2018-08-25T05:13:08.305Z,1.50
2018-08-25T05:15:36.196Z,1.50
2018-08-25T05:18:04.315Z,1.60
2018-08-25T05:20:32.312Z,2.10
2018-08-25T05:23:00.459Z,1.83
2018-08-25T05:25:29.750Z,1.97
2018-08-25T05:27:57.625Z,2.10
2018-08-25T05:30:25.517Z,1.57
2018-08-25T05:32:53.415Z,1.97
2018-08-25T05:35:21.295Z,1.70
2018-08-25T05:37:49.312Z,2.30
2018-08-25T05:40:17.184Z,1.70
2018-08-25T05:42:45.209Z,2.27
2018-08-25T05:45:13.103Z,1.60
2018-08-25T05:47:40.982Z,1.80
2018-08-25T05:50:08.928Z,1.87
2018-08-25T05:52:36.832Z,1.63
2018-08-25T05:55:04.829Z,1.50
2018-08-25T05:57:32.767Z,1.63
2018-08-25T06:00:00.628Z,2.10
2018-08-25T06:02:28.512Z,1.63
2018-08-25T06:04:56.459Z,1.90
2018-08-25T06:07:24.365Z,1.50
2018-08-25T06:09:52.272Z,1.57
2018-08-25T06:12:20.187Z,1.33
2018-08-25T06:14:48.080Z,2.33
2018-08-25T06:17:15.968Z,1.77
2018-08-25T06:19:43.847Z,1.77
2018-08-25T06:22:12.070Z,1.53
2018-08-25T06:24:40.000Z,1.80
2018-08-25T06:27:07.897Z,1.60
2018-08-25T06:29:35.869Z,1.47
2018-08-25T06:32:03.751Z,1.60
2018-08-25T06:34:31.667Z,2.53
2018-08-25T06:37:04.779Z,2.67
2018-08-25T06:39:32.656Z,2.17
2018-08-25T06:42:00.535Z,1.83
2018-08-25T06:44:30.542Z,1.63
2018-08-25T06:46:58.426Z,1.93
2018-08-25T06:49:26.752Z,2.40
2018-08-25T06:51:54.672Z,2.00
2018-08-25T06:54:22.548Z,1.87
2018-08-25T06:56:50.456Z,1.77
2018-08-25T06:59:18.477Z,2.43
2018-08-25T07:01:47.315Z,3.40
2018-08-25T07:04:15.196Z,1.87
2018-08-25T07:06:43.100Z,2.07
2018-08-25T07:09:12.237Z,2.10
2018-08-25T07:11:40.463Z,2.17
2018-08-25T07:14:08.516Z,1.93
2018-08-25T07:16:36.443Z,2.53
2018-08-25T07:19:06.451Z,2.20
2018-08-25T07:21:34.372Z,2.57
2018-08-25T07:24:03.361Z,2.33
2018-08-25T07:26:31.244Z,2.10
2018-08-25T07:28:59.132Z,2.47
2018-08-25T07:31:27.037Z,2.40
2018-08-25T07:33:54.939Z,2.30
2018-08-25T07:36:23.024Z,3.00
2018-08-25T07:38:50.931Z,2.40
2018-08-25T07:41:19.092Z,2.37
2018-08-25T07:43:46.977Z,2.40
2018-08-25T07:46:14.976Z,2.33
2018-08-25T07:48:42.982Z,2.17
2018-08-25T07:51:10.766Z,2.60
2018-08-25T07:53:38.659Z,2.10
2018-08-25T07:56:06.567Z,2.17
2018-08-25T07:58:34.557Z,2.63
2018-08-25T08:01:02.355Z,2.67
2018-08-25T08:03:30.284Z,2.43
2018-08-25T08:05:58.224Z,2.30
2018-08-25T08:08:26.112Z,2.47
2018-08-25T08:10:54.055Z,2.17
2018-08-25T08:13:22.016Z,2.67
2018-08-25T08:15:49.897Z,2.67
2018-08-25T08:18:17.803Z,2.30
2018-08-25T08:20:45.989Z,2.40
2018-08-25T08:23:13.872Z,2.20
2018-08-25T08:25:41.753Z,2.00
2018-08-25T08:28:09.901Z,2.07
2018-08-25T08:30:37.796Z,2.10
2018-08-25T08:33:05.764Z,2.20
2018-08-25T08:35:33.600Z,2.23
2018-08-25T08:38:01.512Z,2.30
2018-08-25T08:40:29.656Z,2.00
2018-08-25T08:42:57.653Z,2.20
2018-08-25T08:45:25.629Z,1.73
2018-08-25T08:47:54.613Z,1.37
2018-08-25T08:50:22.686Z,1.93
2018-08-25T08:52:50.552Z,1.80
2018-08-25T08:55:18.433Z,1.70
2018-08-25T08:57:46.580Z,1.60
2018-08-25T09:00:14.536Z,1.50
2018-08-25T09:02:42.676Z,1.60
2018-08-25T09:05:10.682Z,1.53
2018-08-25T09:07:39.901Z,1.60
2018-08-25T09:10:08.783Z,2.03
2018-08-25T09:12:36.655Z,1.70
2018-08-25T09:15:04.552Z,1.20
2018-08-25T09:17:34.832Z,1.33
2018-08-25T09:20:02.703Z,1.87
2018-08-25T09:22:30.680Z,1.47
2018-08-25T09:24:58.571Z,1.93
2018-08-25T09:27:26.566Z,1.33
2018-08-25T09:29:54.403Z,1.47
2018-08-25T09:32:22.281Z,1.40
2018-08-25T09:34:50.188Z,2.03
2018-08-25T09:37:18.095Z,1.27
2018-08-25T09:39:45.976Z,1.30
2018-08-25T09:42:14.130Z,1.20
2018-08-25T09:44:42.095Z,0.83
2018-08-25T09:47:10.155Z,1.00
2018-08-25T09:49:37.951Z,0.73
2018-08-25T09:52:05.847Z,1.00
2018-08-25T09:54:33.872Z,0.57
2018-08-25T09:57:01.764Z,0.70
2018-08-25T09:59:29.664Z,0.90
2018-08-25T10:02:01.424Z,0.50
2018-08-25T10:04:30.657Z,0.43
2018-08-25T10:06:58.531Z,0.60
2018-08-25T10:09:26.439Z,0.70
2018-08-25T10:11:54.328Z,0.73
2018-08-25T10:14:22.214Z,0.60
2018-08-25T10:16:50.122Z,0.40
2018-08-25T10:19:17.995Z,0.47
2018-08-25T10:21:45.904Z,0.50
2018-08-25T10:24:13.800Z,0.50
2018-08-25T10:26:41.705Z,0.40
2018-08-25T10:29:09.626Z,0.40
2018-08-25T10:31:37.467Z,0.40
2018-08-25T10:34:05.396Z,0.30
2018-08-25T10:36:33.308Z,0.30
2018-08-25T10:39:01.886Z,0.40
2018-08-25T10:41:29.814Z,0.40
2018-08-25T10:43:58.710Z,0.50
2018-08-25T10:46:26.816Z,0.40
2018-08-25T10:48:55.076Z,0.37
2018-08-25T10:51:23.454Z,0.70
2018-08-25T10:53:51.401Z,0.30
2018-08-25T10:56:19.240Z,0.30
2018-08-25T10:58:47.164Z,0.43
2018-08-25T11:01:15.117Z,0.50
2018-08-25T11:03:42.941Z,0.50
2018-08-25T11:06:10.938Z,0.37
2018-08-25T11:08:39.127Z,0.30
2018-08-25T11:11:07.075Z,0.43
2018-08-25T11:13:34.964Z,0.40
2018-08-25T11:16:02.882Z,0.90
2018-08-25T11:18:30.952Z,0.30
2018-08-25T11:20:59.301Z,0.40
2018-08-25T11:23:27.284Z,0.47
2018-08-25T11:25:55.276Z,0.40
2018-08-25T11:28:23.536Z,0.40
2018-08-25T11:30:51.528Z,0.30
2018-08-25T11:33:19.428Z,0.40
2018-08-25T11:35:47.604Z,0.33
2018-08-25T11:38:15.536Z,0.40
2018-08-25T11:40:43.507Z,0.50
2018-08-25T11:43:11.488Z,0.27
2018-08-25T11:45:39.462Z,0.40
2018-08-25T11:48:07.436Z,0.40
2018-08-25T11:50:35.393Z,0.60
2018-08-25T11:53:03.271Z,0.30
2018-08-25T11:55:31.182Z,0.30
2018-08-25T11:57:59.075Z,0.40
2018-08-25T12:00:27.054Z,0.60
2018-08-25T12:02:55.056Z,0.30
2018-08-25T12:05:22.974Z,0.50
2018-08-25T12:07:50.891Z,0.40
2018-08-25T12:10:18.803Z,0.63
2018-08-25T12:12:46.740Z,0.30
2018-08-25T12:15:14.601Z,0.30
2018-08-25T12:17:43.814Z,0.70
2018-08-25T12:20:12.700Z,0.50
2018-08-25T12:22:40.575Z,0.40
2018-08-25T12:25:08.588Z,0.40
2018-08-25T12:27:36.568Z,0.37
2018-08-25T12:30:04.736Z,0.70
2018-08-25T12:32:32.625Z,0.40
2018-08-25T12:35:00.607Z,0.60
2018-08-25T12:37:28.666Z,0.40
2018-08-25T12:39:56.644Z,0.40
2018-08-25T12:42:24.582Z,0.50
2018-08-25T12:44:58.926Z,0.43
2018-08-25T12:47:27.211Z,0.50
2018-08-25T12:49:56.608Z,0.50
2018-08-25T12:52:24.619Z,0.47
2018-08-25T12:54:52.536Z,0.60
2018-08-25T12:57:21.047Z,0.47
2018-08-25T12:59:49.000Z,0.50
2018-08-25T13:02:16.936Z,0.60
2018-08-25T13:04:45.203Z,0.50
2018-08-25T13:07:14.036Z,0.53
2018-08-25T13:09:42.426Z,0.60
2018-08-25T13:12:10.442Z,0.40
2018-08-25T13:14:38.350Z,0.50
2018-08-25T13:17:06.292Z,0.50
2018-08-25T13:19:34.224Z,0.50
2018-08-25T13:22:02.221Z,0.73
2018-08-25T13:24:29.991Z,0.60
2018-08-25T13:26:58.007Z,0.50
2018-08-25T13:29:25.909Z,0.67
2018-08-25T13:31:53.903Z,0.37
2018-08-25T13:34:21.893Z,0.60
2018-08-25T13:36:49.872Z,0.60
2018-08-25T13:39:17.759Z,0.50
2018-08-25T13:41:46.448Z,0.50
2018-08-25T13:44:14.390Z,0.50
2018-08-25T13:46:42.890Z,0.60
2018-08-25T13:49:10.859Z,0.77
2018-08-25T13:51:38.712Z,0.43
2018-08-25T13:54:06.640Z,0.60
2018-08-25T13:56:34.814Z,0.60
2018-08-25T13:59:02.852Z,0.50
2018-08-25T14:01:30.752Z,0.70
2018-08-25T14:03:58.633Z,0.60
2018-08-25T14:06:26.624Z,0.50
2018-08-25T14:08:54.896Z,0.43
2018-08-25T14:11:22.840Z,0.50
2018-08-25T14:13:50.796Z,0.47
2018-08-25T14:16:18.771Z,0.57
2018-08-25T14:18:46.586Z,0.50
2018-08-25T14:21:14.513Z,0.63
2018-08-25T14:23:42.452Z,0.60
2018-08-25T14:26:10.563Z,0.40
2018-08-25T14:28:38.555Z,0.53
2018-08-25T14:31:06.371Z,0.47
2018-08-25T14:33:34.275Z,0.70
2018-08-25T14:36:02.132Z,0.60
2018-08-25T14:38:30.024Z,0.47
2018-08-25T14:40:57.949Z,0.73
2018-08-25T14:43:26.237Z,0.40
2018-08-25T14:45:54.211Z,0.70
2018-08-25T14:48:22.104Z,0.60
2018-08-25T14:50:49.980Z,0.43
2018-08-25T14:53:17.936Z,0.67
2018-08-25T14:55:45.826Z,0.50
2018-08-25T14:58:14.308Z,0.67
2018-08-25T15:03:29.169Z,0.60
2018-08-25T15:05:57.055Z,0.47
2018-08-25T15:08:24.999Z,0.50
2018-08-25T15:10:52.912Z,0.53
2018-08-25T15:13:21.588Z,0.93
2018-08-25T15:15:49.468Z,0.80
2018-08-25T15:18:17.369Z,0.73
2018-08-25T15:20:45.259Z,0.50
2018-08-25T15:23:13.152Z,0.63
2018-08-25T15:25:41.140Z,0.83
2018-08-25T15:28:09.016Z,0.70
2018-08-25T15:30:36.975Z,0.70
2018-08-25T15:33:05.704Z,0.73
2018-08-25T15:35:33.669Z,0.60
2018-08-25T15:38:01.568Z,0.70
2018-08-25T15:40:29.485Z,0.50
2018-08-25T15:42:57.780Z,0.53
2018-08-25T15:45:26.027Z,0.73
2018-08-25T15:47:54.018Z,0.40
2018-08-25T15:50:22.236Z,0.70
2018-08-25T15:52:50.138Z,0.70
2018-08-25T15:55:18.125Z,0.43
2018-08-25T15:57:46.230Z,0.60
2018-08-25T16:00:14.064Z,0.57
2018-08-25T16:02:41.974Z,0.53
2018-08-25T16:05:09.896Z,0.80
2018-08-25T16:07:37.792Z,2.03
2018-08-25T16:10:05.972Z,2.30
2018-08-25T16:12:34.065Z,1.60
2018-08-25T16:15:01.827Z,1.53
2018-08-25T16:17:29.947Z,0.97
2018-08-25T16:19:58.100Z,1.70
2018-08-25T16:22:25.916Z,1.30
2018-08-25T16:24:53.808Z,0.80
2018-08-25T16:27:21.696Z,0.80
2018-08-25T16:29:49.856Z,0.50
2018-08-25T16:32:17.731Z,0.67
2018-08-25T16:34:45.663Z,0.63
2018-08-25T16:37:13.840Z,0.63
2018-08-25T16:39:41.800Z,0.70
2018-08-25T16:42:09.884Z,0.57
2018-08-25T16:44:37.943Z,0.63
2018-08-25T16:47:05.924Z,0.50
2018-08-25T16:49:33.830Z,1.33
2018-08-25T16:52:01.752Z,0.50
2018-08-25T16:54:29.631Z,0.60
2018-08-25T16:56:57.539Z,0.70
2018-08-25T16:59:25.800Z,0.70
2018-08-25T17:01:53.751Z,0.43
2018-08-25T17:04:21.747Z,0.67
2018-08-25T17:06:49.858Z,0.50
2018-08-25T17:09:17.831Z,0.53
2018-08-25T17:11:45.861Z,0.60
2018-08-25T17:14:13.720Z,0.60
2018-08-25T17:16:42.052Z,0.50
2018-08-25T17:19:09.950Z,0.70
2018-08-25T17:21:37.878Z,0.60
2018-08-25T17:24:06.091Z,0.80
2018-08-25T17:26:34.044Z,0.77
2018-08-25T17:29:02.011Z,0.53
2018-08-25T17:31:30.016Z,0.67
2018-08-25T17:33:57.947Z,0.70
2018-08-25T17:36:25.868Z,0.87
2018-08-25T17:38:53.886Z,1.40
2018-08-25T17:41:21.778Z,0.90
2018-08-25T17:43:49.691Z,0.70
2018-08-25T17:46:17.712Z,0.80
2018-08-25T17:48:45.664Z,0.70
2018-08-25T17:51:13.635Z,0.70
2018-08-25T17:53:41.486Z,1.20
2018-08-25T17:56:09.439Z,0.67
2018-08-25T17:58:37.340Z,0.83
2018-08-25T18:01:05.308Z,1.10
2018-08-25T18:03:33.215Z,0.70
2018-08-25T18:06:01.189Z,0.80
2018-08-25T18:08:29.110Z,0.93
2018-08-25T18:10:57.140Z,0.83
2018-08-25T18:13:25.006Z,0.70
2018-08-25T18:15:52.940Z,0.80
2018-08-25T18:18:20.824Z,0.60
2018-08-25T18:20:48.850Z,0.83
2018-08-25T18:23:16.792Z,1.07
2018-08-25T18:25:44.700Z,0.90
2018-08-25T18:28:12.608Z,0.70
2018-08-25T18:30:40.515Z,0.77
2018-08-25T18:33:08.478Z,0.50
2018-08-25T18:35:36.368Z,0.50
2018-08-25T18:38:04.271Z,0.70
2018-08-25T18:41:02.853Z,0.70
2018-08-25T18:43:30.728Z,0.50
2018-08-25T18:45:58.642Z,0.60
2018-08-25T18:48:26.633Z,0.83
2018-08-25T18:50:54.679Z,0.37
2018-08-25T18:53:22.581Z,0.30
2018-08-25T18:55:50.478Z,0.50
2018-08-25T18:58:18.492Z,5.53
2018-08-25T19:00:46.420Z,0.73
2018-08-25T19:03:14.440Z,0.60
2018-08-25T19:05:42.408Z,0.50
2018-08-25T19:08:10.300Z,0.40
2018-08-25T19:10:38.435Z,0.50
2018-08-25T19:13:06.345Z,0.83
2018-08-25T19:15:34.279Z,0.60
2018-08-25T19:18:02.244Z,0.70
2018-08-25T19:20:30.450Z,0.80
2018-08-25T19:22:58.404Z,0.93
2018-08-25T19:25:26.340Z,0.87
2018-08-25T19:27:54.324Z,1.13
2018-08-25T19:30:22.244Z,0.50
2018-08-25T19:32:50.175Z,0.80
2018-08-25T19:35:18.364Z,1.00
2018-08-25T19:37:46.252Z,1.20
2018-08-25T19:40:14.128Z,1.27
2018-08-25T19:42:42.142Z,0.80
2018-08-25T19:45:10.076Z,1.17
2018-08-25T19:47:38.303Z,1.17
2018-08-25T19:50:06.241Z,1.10
2018-08-25T19:52:34.201Z,1.80
2018-08-25T19:55:02.444Z,1.17
2018-08-25T19:57:30.334Z,0.90
2018-08-25T19:59:58.429Z,1.00
2018-08-25T20:02:27.412Z,0.90
2018-08-25T20:04:55.401Z,0.90
2018-08-25T20:07:23.421Z,0.80
2018-08-25T20:09:51.664Z,0.80
2018-08-25T20:12:19.900Z,0.67
2018-08-25T20:14:48.904Z,0.90
2018-08-25T20:17:16.892Z,1.00
2018-08-25T20:19:45.323Z,0.93
2018-08-25T20:22:13.272Z,0.67
2018-08-25T20:24:42.501Z,0.67
2018-08-25T20:27:10.404Z,0.80
2018-08-25T20:29:38.357Z,0.90
2018-08-25T20:32:06.329Z,0.70
2018-08-25T20:34:34.287Z,0.80
2018-08-25T20:37:02.184Z,0.53
2018-08-25T20:39:30.113Z,0.77
2018-08-25T20:41:58.092Z,0.40
2018-08-25T20:44:26.024Z,0.87
2018-08-25T20:46:54.138Z,0.77
2018-08-25T20:49:22.063Z,0.73
2018-08-25T20:51:50.660Z,0.80
2018-08-25T20:54:18.608Z,1.73
2018-08-25T20:56:46.739Z,1.30
2018-08-25T20:59:14.672Z,1.70
2018-08-25T21:01:42.663Z,3.00
2018-08-25T21:04:10.592Z,2.40
2018-08-25T21:06:38.536Z,1.20
2018-08-25T21:09:07.424Z,0.93
2018-08-25T21:11:35.372Z,0.70
2018-08-25T21:14:03.324Z,1.00
2018-08-25T21:16:31.245Z,0.60
2018-08-25T21:19:05.260Z,1.23
2018-08-25T21:21:33.296Z,1.00
2018-08-25T21:24:01.245Z,0.53
2018-08-25T21:26:29.796Z,0.80
2018-08-25T21:28:57.712Z,1.27
2018-08-25T21:31:25.675Z,0.60
2018-08-25T21:33:53.549Z,0.90
2018-08-25T21:36:21.455Z,0.70
2018-08-25T21:38:49.363Z,0.70
2018-08-25T21:41:17.332Z,0.60
2018-08-25T21:43:45.308Z,0.70
2018-08-25T21:46:13.270Z,0.80
2018-08-25T21:48:41.240Z,0.50
2018-08-25T21:51:09.229Z,0.77
2018-08-25T21:53:37.016Z,0.50
2018-08-25T21:56:04.921Z,0.87
2018-08-25T21:58:32.936Z,0.70
2018-08-25T22:01:00.882Z,1.27
2018-08-25T22:03:28.907Z,1.20
2018-08-25T22:05:57.212Z,0.70
2018-08-25T22:08:25.680Z,0.60
2018-08-25T22:10:54.005Z,1.00
2018-08-25T22:13:21.998Z,0.50
2018-08-25T22:15:50.064Z,0.70
2018-08-25T22:18:18.449Z,0.80
2018-08-25T22:20:46.384Z,0.80
2018-08-25T22:23:14.299Z,0.80
2018-08-25T22:25:42.564Z,0.70
2018-08-25T22:28:10.471Z,0.50
2018-08-25T22:30:38.439Z,0.67
2018-08-25T22:33:06.585Z,0.70
2018-08-25T22:35:34.452Z,0.73
2018-08-25T22:38:02.387Z,0.53
2018-08-25T22:40:30.349Z,1.50
2018-08-25T22:42:58.220Z,1.00
2018-08-25T22:45:26.104Z,0.73
2018-08-25T22:47:55.052Z,0.53
2018-08-25T22:50:22.936Z,0.40
2018-08-25T22:52:51.791Z,0.70
2018-08-25T22:55:21.194Z,0.60
2018-08-25T22:57:49.397Z,0.60
2018-08-25T23:00:17.504Z,0.73
2018-08-25T23:02:45.421Z,0.67
2018-08-25T23:05:13.311Z,0.50
2018-08-25T23:07:41.263Z,0.67
2018-08-25T23:10:09.465Z,0.73
2018-08-25T23:12:37.347Z,1.03
2018-08-25T23:15:05.300Z,0.67
2018-08-25T23:17:33.250Z,0.70
2018-08-25T23:20:01.133Z,1.03
2018-08-25T23:22:29.008Z,0.60
2018-08-25T23:24:56.882Z,0.70
2018-08-25T23:27:24.911Z,0.87
2018-08-25T23:29:53.072Z,0.70
2018-08-25T23:32:20.961Z,0.70
2018-08-25T23:34:48.940Z,0.80
2018-08-25T23:37:16.916Z,0.73
2018-08-25T23:39:44.789Z,0.83
2018-08-25T23:42:12.772Z,0.90
2018-08-25T23:44:40.831Z,0.97
2018-08-25T23:47:08.724Z,0.90
2018-08-25T23:49:36.633Z,0.70
2018-08-25T23:52:05.160Z,0.70
2018-08-25T23:54:33.072Z,0.70
2018-08-25T23:57:00.947Z,1.00
2018-08-25T23:59:28.836Z,0.80
